sensor_id;sensor_type;location;lat;lon;timestamp;temperature;humidity
23283;DHT22;11810;51.178;3.878;2022-07-06T00:01:31;11.90;99.90
23283;DHT22;11810;51.178;3.878;2022-07-06T00:03:57;12.00;99.90
23283;DHT22;11810;51.178;3.878;2022-07-06T00:06:24;12.00;99.90
23283;DHT22;11810;51.178;3.878;2022-07-06T00:08:50;11.90;99.90
23283;DHT22;11810;51.178;3.878;2022-07-06T00:11:16;11.90;99.90
23283;DHT22;11810;51.178;3.878;2022-07-06T00:13:42;11.80;99.90
23283;DHT22;11810;51.178;3.878;2022-07-06T00:16:08;11.90;99.90
23283;DHT22;11810;51.178;3.878;2022-07-06T00:18:34;11.80;99.90
23283;DHT22;11810;51.178;3.878;2022-07-06T00:21:00;11.80;99.90
23283;DHT22;11810;51.178;3.878;2022-07-06T00:23:26;11.80;99.90
23283;DHT22;11810;51.178;3.878;2022-07-06T00:25:52;11.70;99.90
23283;DHT22;11810;51.178;3.878;2022-07-06T00:28:18;11.80;99.90
23283;DHT22;11810;51.178;3.878;2022-07-06T00:30:43;11.70;99.90
23283;DHT22;11810;51.178;3.878;2022-07-06T00:33:09;11.70;99.90
23283;DHT22;11810;51.178;3.878;2022-07-06T00:35:35;11.70;99.90
23283;DHT22;11810;51.178;3.878;2022-07-06T00:38:02;11.70;99.90
23283;DHT22;11810;51.178;3.878;2022-07-06T00:40:27;11.70;99.90
23283;DHT22;11810;51.178;3.878;2022-07-06T00:42:55;11.70;99.90
23283;DHT22;11810;51.178;3.878;2022-07-06T00:45:22;11.80;99.90
23283;DHT22;11810;51.178;3.878;2022-07-06T00:47:48;11.80;99.90
23283;DHT22;11810;51.178;3.878;2022-07-06T00:50:16;11.80;99.90
23283;DHT22;11810;51.178;3.878;2022-07-06T00:52:49;11.70;99.90
23283;DHT22;11810;51.178;3.878;2022-07-06T00:55:16;11.60;99.90
23283;DHT22;11810;51.178;3.878;2022-07-06T00:57:43;11.60;99.90
23283;DHT22;11810;51.178;3.878;2022-07-06T01:00:11;11.50;99.90
23283;DHT22;11810;51.178;3.878;2022-07-06T01:02:37;11.40;99.90
23283;DHT22;11810;51.178;3.878;2022-07-06T01:05:05;11.40;99.90
23283;DHT22;11810;51.178;3.878;2022-07-06T01:07:31;11.40;99.90
23283;DHT22;11810;51.178;3.878;2022-07-06T01:09:57;11.30;99.90
23283;DHT22;11810;51.178;3.878;2022-07-06T01:12:24;11.30;99.90
23283;DHT22;11810;51.178;3.878;2022-07-06T01:14:50;11.20;99.90
23283;DHT22;11810;51.178;3.878;2022-07-06T01:17:19;11.10;99.90
23283;DHT22;11810;51.178;3.878;2022-07-06T01:19:46;11.10;99.90
23283;DHT22;11810;51.178;3.878;2022-07-06T01:22:12;11.00;99.90
23283;DHT22;11810;51.178;3.878;2022-07-06T01:24:38;11.00;99.90
23283;DHT22;11810;51.178;3.878;2022-07-06T01:27:05;11.00;99.90
23283;DHT22;11810;51.178;3.878;2022-07-06T01:29:32;11.00;99.90
23283;DHT22;11810;51.178;3.878;2022-07-06T01:31:58;11.00;99.90
23283;DHT22;11810;51.178;3.878;2022-07-06T01:34:24;11.00;99.90
23283;DHT22;11810;51.178;3.878;2022-07-06T01:36:50;11.00;99.90
23283;DHT22;11810;51.178;3.878;2022-07-06T01:39:17;11.00;99.90
23283;DHT22;11810;51.178;3.878;2022-07-06T01:41:44;11.00;99.90
23283;DHT22;11810;51.178;3.878;2022-07-06T01:44:10;10.90;99.90
23283;DHT22;11810;51.178;3.878;2022-07-06T01:46:36;10.80;99.90
23283;DHT22;11810;51.178;3.878;2022-07-06T01:49:02;10.80;99.90
23283;DHT22;11810;51.178;3.878;2022-07-06T01:51:28;10.90;99.90
23283;DHT22;11810;51.178;3.878;2022-07-06T01:53:54;10.90;99.90
23283;DHT22;11810;51.178;3.878;2022-07-06T01:56:20;10.80;99.90
23283;DHT22;11810;51.178;3.878;2022-07-06T01:58:46;10.80;99.90
23283;DHT22;11810;51.178;3.878;2022-07-06T02:01:18;10.80;99.90
23283;DHT22;11810;51.178;3.878;2022-07-06T02:03:45;10.80;99.90
23283;DHT22;11810;51.178;3.878;2022-07-06T02:06:12;10.80;99.90
23283;DHT22;11810;51.178;3.878;2022-07-06T02:08:39;10.80;99.90
23283;DHT22;11810;51.178;3.878;2022-07-06T02:11:06;10.80;99.90
23283;DHT22;11810;51.178;3.878;2022-07-06T02:13:33;10.70;99.90
23283;DHT22;11810;51.178;3.878;2022-07-06T02:15:59;10.70;99.90
23283;DHT22;11810;51.178;3.878;2022-07-06T02:18:25;10.60;99.90
23283;DHT22;11810;51.178;3.878;2022-07-06T02:20:51;10.60;99.90
23283;DHT22;11810;51.178;3.878;2022-07-06T02:23:17;10.60;99.90
23283;DHT22;11810;51.178;3.878;2022-07-06T02:25:43;10.70;99.90
23283;DHT22;11810;51.178;3.878;2022-07-06T02:28:09;10.80;99.90
23283;DHT22;11810;51.178;3.878;2022-07-06T02:30:35;10.70;99.90
23283;DHT22;11810;51.178;3.878;2022-07-06T02:33:01;10.70;99.90
23283;DHT22;11810;51.178;3.878;2022-07-06T02:35:27;10.80;99.90
23283;DHT22;11810;51.178;3.878;2022-07-06T02:37:53;10.80;99.90
23283;DHT22;11810;51.178;3.878;2022-07-06T02:40:19;10.80;99.90
23283;DHT22;11810;51.178;3.878;2022-07-06T02:42:45;10.80;99.90
23283;DHT22;11810;51.178;3.878;2022-07-06T02:45:11;10.80;99.90
23283;DHT22;11810;51.178;3.878;2022-07-06T02:47:37;10.70;99.90
23283;DHT22;11810;51.178;3.878;2022-07-06T02:50:06;10.60;99.90
23283;DHT22;11810;51.178;3.878;2022-07-06T02:52:32;10.40;99.90
23283;DHT22;11810;51.178;3.878;2022-07-06T02:54:58;10.50;99.90
23283;DHT22;11810;51.178;3.878;2022-07-06T02:57:24;10.60;99.90
23283;DHT22;11810;51.178;3.878;2022-07-06T02:59:50;10.70;99.90
23283;DHT22;11810;51.178;3.878;2022-07-06T03:02:17;10.70;99.90
23283;DHT22;11810;51.178;3.878;2022-07-06T03:04:43;10.60;99.90
23283;DHT22;11810;51.178;3.878;2022-07-06T03:07:09;10.50;99.90
23283;DHT22;11810;51.178;3.878;2022-07-06T03:09:35;10.50;99.90
23283;DHT22;11810;51.178;3.878;2022-07-06T03:12:01;10.50;99.90
23283;DHT22;11810;51.178;3.878;2022-07-06T03:14:27;10.50;99.90
23283;DHT22;11810;51.178;3.878;2022-07-06T03:16:54;10.50;99.90
23283;DHT22;11810;51.178;3.878;2022-07-06T03:19:20;10.50;99.90
23283;DHT22;11810;51.178;3.878;2022-07-06T03:21:46;10.50;99.90
23283;DHT22;11810;51.178;3.878;2022-07-06T03:24:12;10.50;99.90
23283;DHT22;11810;51.178;3.878;2022-07-06T03:26:38;10.40;99.90
23283;DHT22;11810;51.178;3.878;2022-07-06T03:29:04;10.40;99.90
23283;DHT22;11810;51.178;3.878;2022-07-06T03:31:30;10.50;99.90
23283;DHT22;11810;51.178;3.878;2022-07-06T03:33:56;10.50;99.90
23283;DHT22;11810;51.178;3.878;2022-07-06T03:36:22;10.60;99.90
23283;DHT22;11810;51.178;3.878;2022-07-06T03:38:48;10.60;99.90
23283;DHT22;11810;51.178;3.878;2022-07-06T03:41:14;10.60;99.90
23283;DHT22;11810;51.178;3.878;2022-07-06T03:43:40;10.60;99.90
23283;DHT22;11810;51.178;3.878;2022-07-06T03:46:06;10.60;99.90
23283;DHT22;11810;51.178;3.878;2022-07-06T03:48:32;10.60;99.90
23283;DHT22;11810;51.178;3.878;2022-07-06T03:50:58;10.60;99.90
23283;DHT22;11810;51.178;3.878;2022-07-06T03:53:24;10.60;99.90
23283;DHT22;11810;51.178;3.878;2022-07-06T03:55:50;10.60;99.90
23283;DHT22;11810;51.178;3.878;2022-07-06T03:58:34;10.70;99.90
23283;DHT22;11810;51.178;3.878;2022-07-06T04:01:00;10.80;99.90
23283;DHT22;11810;51.178;3.878;2022-07-06T04:03:26;10.90;99.90
23283;DHT22;11810;51.178;3.878;2022-07-06T04:05:53;10.90;99.90
23283;DHT22;11810;51.178;3.878;2022-07-06T04:08:19;11.10;99.90
23283;DHT22;11810;51.178;3.878;2022-07-06T04:10:45;11.00;99.90
23283;DHT22;11810;51.178;3.878;2022-07-06T04:13:11;11.10;99.90
23283;DHT22;11810;51.178;3.878;2022-07-06T04:15:37;11.10;99.90
23283;DHT22;11810;51.178;3.878;2022-07-06T04:18:03;11.10;99.90
23283;DHT22;11810;51.178;3.878;2022-07-06T04:20:29;11.30;99.90
23283;DHT22;11810;51.178;3.878;2022-07-06T04:22:55;11.30;99.90
23283;DHT22;11810;51.178;3.878;2022-07-06T04:25:21;11.20;99.90
23283;DHT22;11810;51.178;3.878;2022-07-06T04:27:47;11.20;99.90
23283;DHT22;11810;51.178;3.878;2022-07-06T04:30:13;11.20;99.90
23283;DHT22;11810;51.178;3.878;2022-07-06T04:32:39;11.20;99.90
23283;DHT22;11810;51.178;3.878;2022-07-06T04:35:06;11.30;99.90
23283;DHT22;11810;51.178;3.878;2022-07-06T04:37:32;11.30;99.90
23283;DHT22;11810;51.178;3.878;2022-07-06T04:39:58;11.40;99.90
23283;DHT22;11810;51.178;3.878;2022-07-06T04:42:24;11.40;99.90
23283;DHT22;11810;51.178;3.878;2022-07-06T04:44:50;11.40;99.90
23283;DHT22;11810;51.178;3.878;2022-07-06T04:47:19;11.50;99.90
23283;DHT22;11810;51.178;3.878;2022-07-06T04:49:45;11.50;99.90
23283;DHT22;11810;51.178;3.878;2022-07-06T04:52:11;11.70;99.90
23283;DHT22;11810;51.178;3.878;2022-07-06T04:54:37;11.80;99.90
23283;DHT22;11810;51.178;3.878;2022-07-06T04:57:04;11.80;99.90
23283;DHT22;11810;51.178;3.878;2022-07-06T04:59:30;11.90;99.90
23283;DHT22;11810;51.178;3.878;2022-07-06T05:01:56;12.00;99.90
23283;DHT22;11810;51.178;3.878;2022-07-06T05:04:22;12.00;99.90
23283;DHT22;11810;51.178;3.878;2022-07-06T05:06:49;12.20;99.90
23283;DHT22;11810;51.178;3.878;2022-07-06T05:09:15;12.30;99.90
23283;DHT22;11810;51.178;3.878;2022-07-06T05:11:41;12.70;99.90
23283;DHT22;11810;51.178;3.878;2022-07-06T05:14:07;12.90;99.90
23283;DHT22;11810;51.178;3.878;2022-07-06T05:16:33;13.30;99.90
23283;DHT22;11810;51.178;3.878;2022-07-06T05:18:59;13.60;99.90
23283;DHT22;11810;51.178;3.878;2022-07-06T05:21:25;14.00;99.90
23283;DHT22;11810;51.178;3.878;2022-07-06T05:23:51;14.20;99.90
23283;DHT22;11810;51.178;3.878;2022-07-06T05:26:17;14.50;99.90
23283;DHT22;11810;51.178;3.878;2022-07-06T05:28:43;15.10;99.90
23283;DHT22;11810;51.178;3.878;2022-07-06T05:31:09;15.40;99.90
23283;DHT22;11810;51.178;3.878;2022-07-06T05:33:35;15.90;99.90
23283;DHT22;11810;51.178;3.878;2022-07-06T05:36:01;16.10;99.90
23283;DHT22;11810;51.178;3.878;2022-07-06T05:38:27;16.20;99.90
23283;DHT22;11810;51.178;3.878;2022-07-06T05:40:53;16.20;99.90
23283;DHT22;11810;51.178;3.878;2022-07-06T05:43:19;16.50;99.90
23283;DHT22;11810;51.178;3.878;2022-07-06T05:45:44;16.70;99.90
23283;DHT22;11810;51.178;3.878;2022-07-06T05:48:10;17.20;99.90
23283;DHT22;11810;51.178;3.878;2022-07-06T05:50:55;17.80;99.90
23283;DHT22;11810;51.178;3.878;2022-07-06T05:53:21;18.30;99.90
23283;DHT22;11810;51.178;3.878;2022-07-06T05:55:47;18.50;99.90
23283;DHT22;11810;51.178;3.878;2022-07-06T05:58:13;18.90;99.90
23283;DHT22;11810;51.178;3.878;2022-07-06T06:00:39;19.10;99.90
23283;DHT22;11810;51.178;3.878;2022-07-06T06:03:06;19.50;99.90
23283;DHT22;11810;51.178;3.878;2022-07-06T06:05:32;19.50;99.90
23283;DHT22;11810;51.178;3.878;2022-07-06T06:07:58;19.70;99.90
23283;DHT22;11810;51.178;3.878;2022-07-06T06:10:24;20.00;99.90
23283;DHT22;11810;51.178;3.878;2022-07-06T06:12:50;20.10;99.90
23283;DHT22;11810;51.178;3.878;2022-07-06T06:15:17;20.10;99.90
23283;DHT22;11810;51.178;3.878;2022-07-06T06:17:43;20.40;99.90
23283;DHT22;11810;51.178;3.878;2022-07-06T06:20:11;20.60;99.90
23283;DHT22;11810;51.178;3.878;2022-07-06T06:25:12;20.30;99.90
23283;DHT22;11810;51.178;3.878;2022-07-06T06:27:38;20.60;99.90
23283;DHT22;11810;51.178;3.878;2022-07-06T06:30:05;21.10;99.90
23283;DHT22;11810;51.178;3.878;2022-07-06T06:32:31;21.40;99.90
23283;DHT22;11810;51.178;3.878;2022-07-06T06:34:57;21.90;99.90
23283;DHT22;11810;51.178;3.878;2022-07-06T06:37:22;21.80;99.90
23283;DHT22;11810;51.178;3.878;2022-07-06T06:39:48;22.10;99.90
23283;DHT22;11810;51.178;3.878;2022-07-06T06:42:14;21.70;99.90
23283;DHT22;11810;51.178;3.878;2022-07-06T06:44:40;21.50;99.90
23283;DHT22;11810;51.178;3.878;2022-07-06T06:47:06;21.90;99.90
23283;DHT22;11810;51.178;3.878;2022-07-06T06:49:32;22.60;99.90
23283;DHT22;11810;51.178;3.878;2022-07-06T06:51:58;23.10;99.90
23283;DHT22;11810;51.178;3.878;2022-07-06T06:54:24;23.50;99.90
23283;DHT22;11810;51.178;3.878;2022-07-06T06:56:50;24.30;99.90
23283;DHT22;11810;51.178;3.878;2022-07-06T06:59:16;24.90;99.90
23283;DHT22;11810;51.178;3.878;2022-07-06T07:01:42;25.40;99.90
23283;DHT22;11810;51.178;3.878;2022-07-06T07:04:08;25.40;99.90
23283;DHT22;11810;51.178;3.878;2022-07-06T07:06:34;25.90;99.90
23283;DHT22;11810;51.178;3.878;2022-07-06T07:09:00;25.80;99.90
23283;DHT22;11810;51.178;3.878;2022-07-06T07:11:26;26.10;99.90
23283;DHT22;11810;51.178;3.878;2022-07-06T07:13:52;26.10;99.90
23283;DHT22;11810;51.178;3.878;2022-07-06T07:16:18;26.20;99.90
23283;DHT22;11810;51.178;3.878;2022-07-06T07:18:43;25.80;99.90
23283;DHT22;11810;51.178;3.878;2022-07-06T07:21:09;25.30;99.90
23283;DHT22;11810;51.178;3.878;2022-07-06T07:23:35;25.80;99.90
23283;DHT22;11810;51.178;3.878;2022-07-06T07:26:01;26.40;99.90
23283;DHT22;11810;51.178;3.878;2022-07-06T07:28:27;26.30;99.90
23283;DHT22;11810;51.178;3.878;2022-07-06T07:30:53;25.80;99.90
23283;DHT22;11810;51.178;3.878;2022-07-06T07:33:19;25.40;99.90
23283;DHT22;11810;51.178;3.878;2022-07-06T07:35:45;25.80;99.90
23283;DHT22;11810;51.178;3.878;2022-07-06T07:38:11;26.30;99.90
23283;DHT22;11810;51.178;3.878;2022-07-06T07:40:37;26.00;99.90
23283;DHT22;11810;51.178;3.878;2022-07-06T07:43:03;26.20;99.90
23283;DHT22;11810;51.178;3.878;2022-07-06T07:45:29;25.80;99.90
23283;DHT22;11810;51.178;3.878;2022-07-06T07:47:55;25.80;99.90
23283;DHT22;11810;51.178;3.878;2022-07-06T07:50:21;25.80;99.90
23283;DHT22;11810;51.178;3.878;2022-07-06T07:52:47;26.10;99.90
23283;DHT22;11810;51.178;3.878;2022-07-06T07:55:13;27.10;99.90
23283;DHT22;11810;51.178;3.878;2022-07-06T07:57:39;28.10;99.90
23283;DHT22;11810;51.178;3.878;2022-07-06T08:00:06;28.40;99.90
23283;DHT22;11810;51.178;3.878;2022-07-06T08:02:32;28.10;99.90
23283;DHT22;11810;51.178;3.878;2022-07-06T08:04:58;27.90;99.90
23283;DHT22;11810;51.178;3.878;2022-07-06T08:07:24;27.90;99.90
23283;DHT22;11810;51.178;3.878;2022-07-06T08:09:50;27.60;99.90
23283;DHT22;11810;51.178;3.878;2022-07-06T08:12:16;27.50;99.90
23283;DHT22;11810;51.178;3.878;2022-07-06T08:14:42;26.70;99.90
23283;DHT22;11810;51.178;3.878;2022-07-06T08:17:08;26.00;99.90
23283;DHT22;11810;51.178;3.878;2022-07-06T08:19:34;25.10;99.90
23283;DHT22;11810;51.178;3.878;2022-07-06T08:21:59;24.50;99.90
23283;DHT22;11810;51.178;3.878;2022-07-06T08:24:26;24.60;99.90
23283;DHT22;11810;51.178;3.878;2022-07-06T08:26:51;24.60;99.90
23283;DHT22;11810;51.178;3.878;2022-07-06T08:29:17;25.50;99.90
23283;DHT22;11810;51.178;3.878;2022-07-06T08:31:43;26.70;99.90
23283;DHT22;11810;51.178;3.878;2022-07-06T08:34:09;27.30;99.90
23283;DHT22;11810;51.178;3.878;2022-07-06T08:36:35;27.80;99.90
23283;DHT22;11810;51.178;3.878;2022-07-06T08:39:01;27.70;99.90
23283;DHT22;11810;51.178;3.878;2022-07-06T08:41:29;27.50;99.90
23283;DHT22;11810;51.178;3.878;2022-07-06T08:43:55;26.90;99.90
23283;DHT22;11810;51.178;3.878;2022-07-06T08:46:22;26.70;99.90
23283;DHT22;11810;51.178;3.878;2022-07-06T08:48:48;26.90;99.90
23283;DHT22;11810;51.178;3.878;2022-07-06T08:51:14;26.80;99.90
23283;DHT22;11810;51.178;3.878;2022-07-06T08:53:42;26.30;99.90
23283;DHT22;11810;51.178;3.878;2022-07-06T08:56:08;26.60;99.90
23283;DHT22;11810;51.178;3.878;2022-07-06T08:58:34;27.10;99.90
23283;DHT22;11810;51.178;3.878;2022-07-06T09:01:00;27.60;99.90
23283;DHT22;11810;51.178;3.878;2022-07-06T09:03:27;28.50;99.90
23283;DHT22;11810;51.178;3.878;2022-07-06T09:05:58;29.70;99.90
23283;DHT22;11810;51.178;3.878;2022-07-06T09:08:27;30.00;99.90
23283;DHT22;11810;51.178;3.878;2022-07-06T09:10:54;29.50;99.90
23283;DHT22;11810;51.178;3.878;2022-07-06T09:13:20;28.20;99.90
23283;DHT22;11810;51.178;3.878;2022-07-06T09:15:46;27.30;99.90
23283;DHT22;11810;51.178;3.878;2022-07-06T09:18:12;26.30;99.90
23283;DHT22;11810;51.178;3.878;2022-07-06T09:20:38;25.90;99.90
23283;DHT22;11810;51.178;3.878;2022-07-06T09:23:06;25.80;99.90
23283;DHT22;11810;51.178;3.878;2022-07-06T09:25:33;25.00;99.90
23283;DHT22;11810;51.178;3.878;2022-07-06T09:28:01;24.90;99.90
23283;DHT22;11810;51.178;3.878;2022-07-06T09:30:28;24.70;99.90
23283;DHT22;11810;51.178;3.878;2022-07-06T09:32:56;24.90;99.90
23283;DHT22;11810;51.178;3.878;2022-07-06T09:35:40;25.10;99.90
23283;DHT22;11810;51.178;3.878;2022-07-06T09:38:11;25.20;99.90
23283;DHT22;11810;51.178;3.878;2022-07-06T09:40:38;25.10;99.90
23283;DHT22;11810;51.178;3.878;2022-07-06T09:45:39;25.20;99.90
23283;DHT22;11810;51.178;3.878;2022-07-06T09:48:11;24.60;99.90
23283;DHT22;11810;51.178;3.878;2022-07-06T09:50:41;24.80;99.90
23283;DHT22;11810;51.178;3.878;2022-07-06T09:53:09;24.70;99.90
23283;DHT22;11810;51.178;3.878;2022-07-06T09:55:35;24.90;99.90
23283;DHT22;11810;51.178;3.878;2022-07-06T09:58:02;24.80;99.90
23283;DHT22;11810;51.178;3.878;2022-07-06T10:00:28;24.70;99.90
23283;DHT22;11810;51.178;3.878;2022-07-06T10:02:54;25.10;99.90
23283;DHT22;11810;51.178;3.878;2022-07-06T10:05:22;25.50;99.90
23283;DHT22;11810;51.178;3.878;2022-07-06T10:07:57;26.00;99.90
23283;DHT22;11810;51.178;3.878;2022-07-06T10:10:26;26.50;99.90
23283;DHT22;11810;51.178;3.878;2022-07-06T10:12:57;26.70;99.90
23283;DHT22;11810;51.178;3.878;2022-07-06T10:15:26;27.40;99.90
23283;DHT22;11810;51.178;3.878;2022-07-06T10:17:53;27.90;99.90
23283;DHT22;11810;51.178;3.878;2022-07-06T10:20:22;28.10;99.90
23283;DHT22;11810;51.178;3.878;2022-07-06T10:22:49;27.50;99.90
23283;DHT22;11810;51.178;3.878;2022-07-06T10:25:19;27.00;99.90
23283;DHT22;11810;51.178;3.878;2022-07-06T10:27:48;26.60;99.90
23283;DHT22;11810;51.178;3.878;2022-07-06T10:30:15;26.40;99.90
23283;DHT22;11810;51.178;3.878;2022-07-06T10:32:44;26.00;99.90
23283;DHT22;11810;51.178;3.878;2022-07-06T10:35:12;26.10;99.90
23283;DHT22;11810;51.178;3.878;2022-07-06T10:37:38;26.90;99.90
23283;DHT22;11810;51.178;3.878;2022-07-06T10:40:05;27.40;99.90
23283;DHT22;11810;51.178;3.878;2022-07-06T10:42:57;27.40;99.90
23283;DHT22;11810;51.178;3.878;2022-07-06T10:50:50;28.90;99.90
23283;DHT22;11810;51.178;3.878;2022-07-06T10:53:19;28.70;99.90
23283;DHT22;11810;51.178;3.878;2022-07-06T10:55:47;28.70;99.90
23283;DHT22;11810;51.178;3.878;2022-07-06T10:58:35;28.20;99.90
23283;DHT22;11810;51.178;3.878;2022-07-06T11:01:01;27.70;99.90
23283;DHT22;11810;51.178;3.878;2022-07-06T11:03:33;27.90;99.90
23283;DHT22;11810;51.178;3.878;2022-07-06T11:06:07;29.30;99.90
23283;DHT22;11810;51.178;3.878;2022-07-06T11:11:25;31.40;99.90
23283;DHT22;11810;51.178;3.878;2022-07-06T11:17:15;30.90;99.90
23283;DHT22;11810;51.178;3.878;2022-07-06T11:19:22;29.50;99.90
23283;DHT22;11810;51.178;3.878;2022-07-06T11:22:08;28.90;99.90
23283;DHT22;11810;51.178;3.878;2022-07-06T11:24:37;28.50;99.90
23283;DHT22;11810;51.178;3.878;2022-07-06T11:27:04;28.40;99.90
23283;DHT22;11810;51.178;3.878;2022-07-06T11:29:33;27.80;99.90
23283;DHT22;11810;51.178;3.878;2022-07-06T11:32:07;27.80;99.90
23283;DHT22;11810;51.178;3.878;2022-07-06T11:34:40;28.40;99.90
23283;DHT22;11810;51.178;3.878;2022-07-06T11:37:08;29.10;99.90
23283;DHT22;11810;51.178;3.878;2022-07-06T11:39:36;29.10;99.90
23283;DHT22;11810;51.178;3.878;2022-07-06T11:42:03;29.80;99.90
23283;DHT22;11810;51.178;3.878;2022-07-06T11:44:30;30.60;99.90
23283;DHT22;11810;51.178;3.878;2022-07-06T11:46:57;30.10;99.90
23283;DHT22;11810;51.178;3.878;2022-07-06T11:49:26;30.90;99.90
23283;DHT22;11810;51.178;3.878;2022-07-06T11:51:52;31.40;99.90
23283;DHT22;11810;51.178;3.878;2022-07-06T11:54:20;31.20;99.90
23283;DHT22;11810;51.178;3.878;2022-07-06T11:56:57;31.00;99.90
23283;DHT22;11810;51.178;3.878;2022-07-06T11:59:33;30.30;99.90
23283;DHT22;11810;51.178;3.878;2022-07-06T12:02:03;31.20;99.90
23283;DHT22;11810;51.178;3.878;2022-07-06T12:04:30;31.90;99.90
23283;DHT22;11810;51.178;3.878;2022-07-06T12:07:03;31.50;99.70
23283;DHT22;11810;51.178;3.878;2022-07-06T12:09:31;31.80;99.90
23283;DHT22;11810;51.178;3.878;2022-07-06T12:11:57;30.10;99.90
23283;DHT22;11810;51.178;3.878;2022-07-06T12:14:23;29.70;99.90
23283;DHT22;11810;51.178;3.878;2022-07-06T12:16:50;29.20;99.90
23283;DHT22;11810;51.178;3.878;2022-07-06T12:19:16;29.70;99.90
23283;DHT22;11810;51.178;3.878;2022-07-06T12:21:45;30.10;99.90
23283;DHT22;11810;51.178;3.878;2022-07-06T12:24:17;29.40;99.90
23283;DHT22;11810;51.178;3.878;2022-07-06T12:26:44;28.90;99.90
23283;DHT22;11810;51.178;3.878;2022-07-06T12:29:12;28.50;99.90
23283;DHT22;11810;51.178;3.878;2022-07-06T12:31:56;28.30;99.90
23283;DHT22;11810;51.178;3.878;2022-07-06T12:34:23;28.10;99.90
23283;DHT22;11810;51.178;3.878;2022-07-06T12:37:07;29.00;99.90
23283;DHT22;11810;51.178;3.878;2022-07-06T12:39:45;30.20;99.90
23283;DHT22;11810;51.178;3.878;2022-07-06T12:42:14;30.30;99.90
23283;DHT22;11810;51.178;3.878;2022-07-06T12:44:49;29.40;99.90
23283;DHT22;11810;51.178;3.878;2022-07-06T12:47:23;29.10;99.90
23283;DHT22;11810;51.178;3.878;2022-07-06T12:50:05;28.80;99.90
23283;DHT22;11810;51.178;3.878;2022-07-06T12:52:31;29.60;99.90
23283;DHT22;11810;51.178;3.878;2022-07-06T12:55:00;30.10;99.90
23283;DHT22;11810;51.178;3.878;2022-07-06T12:57:26;30.80;99.90
23283;DHT22;11810;51.178;3.878;2022-07-06T13:02:25;30.90;99.90
23283;DHT22;11810;51.178;3.878;2022-07-06T13:05:03;30.00;99.90
23283;DHT22;11810;51.178;3.878;2022-07-06T13:07:30;29.80;99.90
23283;DHT22;11810;51.178;3.878;2022-07-06T13:09:58;29.60;99.90
23283;DHT22;11810;51.178;3.878;2022-07-06T13:12:24;29.10;99.90
23283;DHT22;11810;51.178;3.878;2022-07-06T13:14:51;29.00;99.90
23283;DHT22;11810;51.178;3.878;2022-07-06T13:17:17;28.60;99.90
23283;DHT22;11810;51.178;3.878;2022-07-06T13:19:43;28.20;99.90
23283;DHT22;11810;51.178;3.878;2022-07-06T13:22:10;28.50;99.90
23283;DHT22;11810;51.178;3.878;2022-07-06T13:24:36;28.80;99.90
23283;DHT22;11810;51.178;3.878;2022-07-06T13:27:02;28.60;99.90
23283;DHT22;11810;51.178;3.878;2022-07-06T13:29:28;28.30;99.90
23283;DHT22;11810;51.178;3.878;2022-07-06T13:31:54;27.80;99.90
23283;DHT22;11810;51.178;3.878;2022-07-06T13:34:20;27.40;99.90
23283;DHT22;11810;51.178;3.878;2022-07-06T13:36:46;27.40;99.90
23283;DHT22;11810;51.178;3.878;2022-07-06T13:39:12;27.40;99.90
23283;DHT22;11810;51.178;3.878;2022-07-06T13:41:38;27.50;99.90
23283;DHT22;11810;51.178;3.878;2022-07-06T13:44:04;27.60;99.90
23283;DHT22;11810;51.178;3.878;2022-07-06T13:46:31;27.90;99.90
23283;DHT22;11810;51.178;3.878;2022-07-06T13:48:57;28.10;99.90
23283;DHT22;11810;51.178;3.878;2022-07-06T13:51:25;27.80;99.90
23283;DHT22;11810;51.178;3.878;2022-07-06T13:53:52;27.10;99.90
23283;DHT22;11810;51.178;3.878;2022-07-06T13:56:18;27.10;99.90
23283;DHT22;11810;51.178;3.878;2022-07-06T13:58:45;27.10;99.90
23283;DHT22;11810;51.178;3.878;2022-07-06T14:01:11;26.50;99.90
23283;DHT22;11810;51.178;3.878;2022-07-06T14:03:37;26.50;99.90
23283;DHT22;11810;51.178;3.878;2022-07-06T14:06:05;26.60;99.90
23283;DHT22;11810;51.178;3.878;2022-07-06T14:08:38;26.70;99.90
23283;DHT22;11810;51.178;3.878;2022-07-06T14:11:05;26.50;99.90
23283;DHT22;11810;51.178;3.878;2022-07-06T14:13:31;26.60;99.90
23283;DHT22;11810;51.178;3.878;2022-07-06T14:15:58;26.80;99.90
23283;DHT22;11810;51.178;3.878;2022-07-06T14:18:24;26.90;99.90
23283;DHT22;11810;51.178;3.878;2022-07-06T14:20:50;26.60;99.90
23283;DHT22;11810;51.178;3.878;2022-07-06T14:23:17;26.20;99.90
23283;DHT22;11810;51.178;3.878;2022-07-06T14:25:43;25.80;99.90
23283;DHT22;11810;51.178;3.878;2022-07-06T14:28:10;25.70;99.90
23283;DHT22;11810;51.178;3.878;2022-07-06T14:30:39;26.00;99.90
23283;DHT22;11810;51.178;3.878;2022-07-06T14:33:07;25.70;99.90
23283;DHT22;11810;51.178;3.878;2022-07-06T14:35:45;25.70;99.90
23283;DHT22;11810;51.178;3.878;2022-07-06T14:38:14;25.70;99.90
23283;DHT22;11810;51.178;3.878;2022-07-06T14:40:41;25.50;99.90
23283;DHT22;11810;51.178;3.878;2022-07-06T14:43:07;25.40;99.90
23283;DHT22;11810;51.178;3.878;2022-07-06T14:45:33;25.30;99.90
23283;DHT22;11810;51.178;3.878;2022-07-06T14:47:59;25.10;99.90
23283;DHT22;11810;51.178;3.878;2022-07-06T14:50:26;24.80;99.90
23283;DHT22;11810;51.178;3.878;2022-07-06T14:52:53;24.90;99.90
23283;DHT22;11810;51.178;3.878;2022-07-06T14:55:19;25.20;99.90
23283;DHT22;11810;51.178;3.878;2022-07-06T14:57:45;25.70;99.90
23283;DHT22;11810;51.178;3.878;2022-07-06T15:00:12;26.20;99.90
23283;DHT22;11810;51.178;3.878;2022-07-06T15:02:38;26.60;99.90
23283;DHT22;11810;51.178;3.878;2022-07-06T15:05:05;26.90;99.90
23283;DHT22;11810;51.178;3.878;2022-07-06T15:07:31;27.10;99.90
23283;DHT22;11810;51.178;3.878;2022-07-06T15:09:57;27.60;99.90
23283;DHT22;11810;51.178;3.878;2022-07-06T15:12:22;27.80;99.90
23283;DHT22;11810;51.178;3.878;2022-07-06T15:14:49;27.70;99.90
23283;DHT22;11810;51.178;3.878;2022-07-06T15:17:15;27.70;99.90
23283;DHT22;11810;51.178;3.878;2022-07-06T15:19:43;27.20;99.90
23283;DHT22;11810;51.178;3.878;2022-07-06T15:22:10;27.20;99.90
23283;DHT22;11810;51.178;3.878;2022-07-06T15:24:36;27.00;99.90
23283;DHT22;11810;51.178;3.878;2022-07-06T15:27:03;27.30;99.90
23283;DHT22;11810;51.178;3.878;2022-07-06T15:29:30;27.20;99.90
23283;DHT22;11810;51.178;3.878;2022-07-06T15:31:56;27.30;99.90
23283;DHT22;11810;51.178;3.878;2022-07-06T15:34:22;27.00;99.90
23283;DHT22;11810;51.178;3.878;2022-07-06T15:36:48;26.90;99.90
23283;DHT22;11810;51.178;3.878;2022-07-06T15:39:15;26.90;99.90
23283;DHT22;11810;51.178;3.878;2022-07-06T15:41:42;26.90;99.90
23283;DHT22;11810;51.178;3.878;2022-07-06T15:44:08;27.10;99.90
23283;DHT22;11810;51.178;3.878;2022-07-06T15:46:34;27.00;99.90
23283;DHT22;11810;51.178;3.878;2022-07-06T15:49:00;27.10;99.90